sensor_id;sensor_type;location;lat;lon;timestamp;pressure;altitude;pressure_sealevel;temperature;humidity
41062;BME280;26812;42.662;23.352;2022-08-19T00:01:31;94675.59;;;23.19;53.41
41062;BME280;26812;42.662;23.352;2022-08-19T00:04:02;94663.19;;;22.97;54.08
41062;BME280;26812;42.662;23.352;2022-08-19T00:06:29;94682.75;;;23.06;53.94
41062;BME280;26812;42.662;23.352;2022-08-19T00:08:55;94685.94;;;23.01;54.42
41062;BME280;26812;42.662;23.352;2022-08-19T00:11:21;94676.88;;;23.04;54.48
41062;BME280;26812;42.662;23.352;2022-08-19T00:13:46;94673.69;;;23.13;54.32
41062;BME280;26812;42.662;23.352;2022-08-19T00:16:15;94670.50;;;23.18;54.50
41062;BME280;26812;42.662;23.352;2022-08-19T00:18:40;94689.69;;;23.25;54.53
41062;BME280;26812;42.662;23.352;2022-08-19T00:21:05;94686.97;;;23.21;54.57
41062;BME280;26812;42.662;23.352;2022-08-19T00:23:34;94684.97;;;23.29;54.44
41062;BME280;26812;42.662;23.352;2022-08-19T00:26:04;94685.03;;;23.18;54.63
41062;BME280;26812;42.662;23.352;2022-08-19T00:28:30;94699.09;;;23.31;54.65
41062;BME280;26812;42.662;23.352;2022-08-19T00:30:56;94681.13;;;23.12;54.83
41062;BME280;26812;42.662;23.352;2022-08-19T00:33:21;94685.81;;;23.15;54.89
41062;BME280;26812;42.662;23.352;2022-08-19T00:35:47;94698.03;;;23.11;54.84
41062;BME280;26812;42.662;23.352;2022-08-19T00:38:13;94675.66;;;23.12;55.33
41062;BME280;26812;42.662;23.352;2022-08-19T00:40:38;94683.84;;;23.19;55.04
41062;BME280;26812;42.662;23.352;2022-08-19T00:43:10;94678.78;;;23.14;55.07
41062;BME280;26812;42.662;23.352;2022-08-19T00:45:38;94682.34;;;23.08;55.33
41062;BME280;26812;42.662;23.352;2022-08-19T00:48:06;94675.38;;;22.89;55.59
41062;BME280;26812;42.662;23.352;2022-08-19T00:50:32;94693.84;;;22.88;55.74
41062;BME280;26812;42.662;23.352;2022-08-19T00:52:58;94682.81;;;22.92;55.54
41062;BME280;26812;42.662;23.352;2022-08-19T00:55:26;94674.66;;;22.81;54.95
41062;BME280;26812;42.662;23.352;2022-08-19T00:58:09;94686.41;;;22.85;56.27
41062;BME280;26812;42.662;23.352;2022-08-19T01:00:37;94684.50;;;22.72;56.47
41062;BME280;26812;42.662;23.352;2022-08-19T01:03:05;94683.72;;;22.64;56.57
41062;BME280;26812;42.662;23.352;2022-08-19T01:05:31;94689.19;;;22.75;56.56
41062;BME280;26812;42.662;23.352;2022-08-19T01:08:00;94675.88;;;22.66;57.01
41062;BME280;26812;42.662;23.352;2022-08-19T01:10:29;94680.56;;;22.69;56.90
41062;BME280;26812;42.662;23.352;2022-08-19T01:12:58;94677.81;;;22.73;56.88
41062;BME280;26812;42.662;23.352;2022-08-19T01:15:29;94681.31;;;22.77;56.88
41062;BME280;26812;42.662;23.352;2022-08-19T01:17:55;94673.91;;;22.63;57.30
41062;BME280;26812;42.662;23.352;2022-08-19T01:20:23;94676.63;;;22.74;57.01
41062;BME280;26812;42.662;23.352;2022-08-19T01:25:19;94671.56;;;22.61;57.16
41062;BME280;26812;42.662;23.352;2022-08-19T01:27:49;94672.34;;;22.62;57.45
41062;BME280;26812;42.662;23.352;2022-08-19T01:30:21;94688.81;;;22.69;57.50
41062;BME280;26812;42.662;23.352;2022-08-19T01:32:48;94681.38;;;22.59;57.68
41062;BME280;26812;42.662;23.352;2022-08-19T01:35:14;94689.22;;;22.64;57.58
41062;BME280;26812;42.662;23.352;2022-08-19T01:40:09;94673.97;;;22.52;57.67
41062;BME280;26812;42.662;23.352;2022-08-19T01:42:35;94680.28;;;22.46;57.90
41062;BME280;26812;42.662;23.352;2022-08-19T01:45:00;94680.69;;;22.44;57.97
41062;BME280;26812;42.662;23.352;2022-08-19T01:47:25;94656.09;;;22.09;58.74
41062;BME280;26812;42.662;23.352;2022-08-19T01:49:51;94678.44;;;21.86;59.83
41062;BME280;26812;42.662;23.352;2022-08-19T01:52:16;94679.25;;;21.83;60.00
41062;BME280;26812;42.662;23.352;2022-08-19T01:54:42;94677.66;;;21.89;60.09
41062;BME280;26812;42.662;23.352;2022-08-19T01:57:10;94683.13;;;21.99;59.82
41062;BME280;26812;42.662;23.352;2022-08-19T01:59:37;94668.22;;;21.97;59.24
41062;BME280;26812;42.662;23.352;2022-08-19T02:02:05;94669.81;;;21.94;59.41
41062;BME280;26812;42.662;23.352;2022-08-19T02:04:33;94686.25;;;21.94;59.69
41062;BME280;26812;42.662;23.352;2022-08-19T02:06:58;94679.22;;;21.90;59.83
41062;BME280;26812;42.662;23.352;2022-08-19T02:09:24;94679.22;;;21.97;59.93
41062;BME280;26812;42.662;23.352;2022-08-19T02:11:49;94672.94;;;21.96;59.88
41062;BME280;26812;42.662;23.352;2022-08-19T02:14:15;94681.97;;;22.08;59.75
41062;BME280;26812;42.662;23.352;2022-08-19T02:16:40;94682.72;;;22.01;59.67
41062;BME280;26812;42.662;23.352;2022-08-19T02:19:05;94687.81;;;22.02;60.04
41062;BME280;26812;42.662;23.352;2022-08-19T02:21:32;94680.81;;;22.05;59.64
41062;BME280;26812;42.662;23.352;2022-08-19T02:23:57;94677.63;;;21.99;59.72
41062;BME280;26812;42.662;23.352;2022-08-19T02:26:23;94684.31;;;22.09;59.29
41062;BME280;26812;42.662;23.352;2022-08-19T02:28:50;94686.25;;;22.01;59.25
41062;BME280;26812;42.662;23.352;2022-08-19T02:31:18;94675.69;;;21.96;59.27
41062;BME280;26812;42.662;23.352;2022-08-19T02:33:45;94683.13;;;21.99;59.18
41062;BME280;26812;42.662;23.352;2022-08-19T02:36:12;94680.03;;;21.87;59.46
41062;BME280;26812;42.662;23.352;2022-08-19T02:38:38;94686.25;;;21.94;59.48
41062;BME280;26812;42.662;23.352;2022-08-19T02:41:07;94677.31;;;21.76;59.75
41062;BME280;26812;42.662;23.352;2022-08-19T02:43:35;94678.84;;;21.81;59.54
41062;BME280;26812;42.662;23.352;2022-08-19T02:46:20;94686.69;;;21.82;59.85
41062;BME280;26812;42.662;23.352;2022-08-19T02:48:51;94691.78;;;21.87;59.97
41062;BME280;26812;42.662;23.352;2022-08-19T02:51:26;94687.09;;;21.74;60.13
41062;BME280;26812;42.662;23.352;2022-08-19T02:53:53;94700.00;;;21.73;60.27
41062;BME280;26812;42.662;23.352;2022-08-19T02:56:19;94696.09;;;21.74;60.27
41062;BME280;26812;42.662;23.352;2022-08-19T02:58:44;94705.47;;;21.87;60.27
41062;BME280;26812;42.662;23.352;2022-08-19T03:01:11;94700.78;;;21.88;59.96
41062;BME280;26812;42.662;23.352;2022-08-19T03:03:37;94703.91;;;21.83;60.18
41062;BME280;26812;42.662;23.352;2022-08-19T03:08:29;94696.88;;;21.75;59.99
41062;BME280;26812;42.662;23.352;2022-08-19T03:10:55;94696.47;;;21.69;60.24
41062;BME280;26812;42.662;23.352;2022-08-19T03:13:20;94696.09;;;21.74;59.80
41062;BME280;26812;42.662;23.352;2022-08-19T03:15:47;94683.97;;;21.54;60.42
41062;BME280;26812;42.662;23.352;2022-08-19T03:18:13;94694.13;;;21.57;60.47
41062;BME280;26812;42.662;23.352;2022-08-19T03:20:48;94666.34;;;21.41;60.67
41062;BME280;26812;42.662;23.352;2022-08-19T03:23:15;94680.84;;;21.48;60.65
41062;BME280;26812;42.662;23.352;2022-08-19T03:25:44;94683.19;;;21.50;60.90
41062;BME280;26812;42.662;23.352;2022-08-19T03:28:11;94686.31;;;21.34;61.30
41062;BME280;26812;42.662;23.352;2022-08-19T03:30:37;94691.03;;;21.44;61.25
41062;BME280;26812;42.662;23.352;2022-08-19T03:33:04;94684.34;;;21.31;61.67
41062;BME280;26812;42.662;23.352;2022-08-19T03:35:30;94687.88;;;21.28;61.80
41062;BME280;26812;42.662;23.352;2022-08-19T03:37:55;94675.72;;;21.22;61.74
41062;BME280;26812;42.662;23.352;2022-08-19T03:40:21;94692.56;;;21.24;62.21
41062;BME280;26812;42.662;23.352;2022-08-19T03:42:47;94698.03;;;21.31;62.28
41062;BME280;26812;42.662;23.352;2022-08-19T03:45:12;94701.19;;;21.33;62.08
41062;BME280;26812;42.662;23.352;2022-08-19T03:47:37;94705.88;;;21.39;62.09
41062;BME280;26812;42.662;23.352;2022-08-19T03:50:03;94698.81;;;21.31;61.92
41062;BME280;26812;42.662;23.352;2022-08-19T03:52:29;94712.13;;;21.40;62.10
41062;BME280;26812;42.662;23.352;2022-08-19T03:54:55;94710.56;;;21.43;62.01
41062;BME280;26812;42.662;23.352;2022-08-19T03:57:20;94721.91;;;21.37;61.95
41062;BME280;26812;42.662;23.352;2022-08-19T03:59:46;94723.13;;;21.44;61.81
41062;BME280;26812;42.662;23.352;2022-08-19T04:02:11;94718.44;;;21.44;61.91
41062;BME280;26812;42.662;23.352;2022-08-19T04:04:42;94722.34;;;21.43;61.87
41062;BME280;26812;42.662;23.352;2022-08-19T04:07:09;94709.78;;;21.28;62.08
41062;BME280;26812;42.662;23.352;2022-08-19T04:09:35;94712.13;;;21.33;61.95
41062;BME280;26812;42.662;23.352;2022-08-19T04:12:03;94734.09;;;21.47;62.09
41062;BME280;26812;42.662;23.352;2022-08-19T04:14:31;94714.47;;;21.42;61.75
41062;BME280;26812;42.662;23.352;2022-08-19T04:16:58;94727.38;;;21.20;62.41
41062;BME280;26812;42.662;23.352;2022-08-19T04:19:25;94731.72;;;21.31;62.50
41062;BME280;26812;42.662;23.352;2022-08-19T04:21:53;94738.75;;;21.29;62.34
41062;BME280;26812;42.662;23.352;2022-08-19T04:24:19;94739.16;;;21.31;62.71
41062;BME280;26812;42.662;23.352;2022-08-19T04:26:45;94739.16;;;21.38;62.26
41062;BME280;26812;42.662;23.352;2022-08-19T04:29:14;94738.78;;;21.50;62.01
41062;BME280;26812;42.662;23.352;2022-08-19T04:31:40;94738.78;;;21.47;62.05
41062;BME280;26812;42.662;23.352;2022-08-19T04:34:08;94730.97;;;21.49;61.74
41062;BME280;26812;42.662;23.352;2022-08-19T04:36:37;94725.84;;;21.58;61.51
41062;BME280;26812;42.662;23.352;2022-08-19T04:39:08;94741.91;;;21.70;61.48
41062;BME280;26812;42.662;23.352;2022-08-19T04:41:34;94741.50;;;21.72;61.13
41062;BME280;26812;42.662;23.352;2022-08-19T04:44:19;94739.19;;;21.81;60.57
41062;BME280;26812;42.662;23.352;2022-08-19T04:46:46;94734.88;;;21.80;60.68
41062;BME280;26812;42.662;23.352;2022-08-19T04:49:13;94738.00;;;21.89;59.56
41062;BME280;26812;42.662;23.352;2022-08-19T04:51:41;94737.59;;;22.01;58.61
41062;BME280;26812;42.662;23.352;2022-08-19T04:54:07;94738.41;;;22.12;58.90
41062;BME280;26812;42.662;23.352;2022-08-19T04:56:33;94730.16;;;22.12;59.02
41062;BME280;26812;42.662;23.352;2022-08-19T04:58:59;94728.59;;;22.15;58.64
41062;BME280;26812;42.662;23.352;2022-08-19T05:01:29;94728.59;;;22.18;58.56
41062;BME280;26812;42.662;23.352;2022-08-19T05:03:55;94745.00;;;22.33;58.72
41062;BME280;26812;42.662;23.352;2022-08-19T05:06:22;94737.16;;;22.35;58.63
41062;BME280;26812;42.662;23.352;2022-08-19T05:08:48;94745.78;;;22.44;59.23
41062;BME280;26812;42.662;23.352;2022-08-19T05:11:19;94699.16;;;22.37;59.02
41062;BME280;26812;42.662;23.352;2022-08-19T05:13:46;94738.59;;;22.75;58.74
41062;BME280;26812;42.662;23.352;2022-08-19T05:16:15;94752.28;;;22.92;58.10
41062;BME280;26812;42.662;23.352;2022-08-19T05:18:41;94738.91;;;22.95;57.86
41062;BME280;26812;42.662;23.352;2022-08-19T05:21:26;94744.66;;;23.21;57.37
41062;BME280;26812;42.662;23.352;2022-08-19T05:24:11;94747.78;;;23.31;56.50
41062;BME280;26812;42.662;23.352;2022-08-19T05:26:40;94747.31;;;23.39;56.37
41062;BME280;26812;42.662;23.352;2022-08-19T05:29:06;94746.88;;;23.48;56.66
41062;BME280;26812;42.662;23.352;2022-08-19T05:31:33;94748.41;;;23.60;56.28
41062;BME280;26812;42.662;23.352;2022-08-19T05:33:58;94751.06;;;23.70;55.04
41062;BME280;26812;42.662;23.352;2022-08-19T05:36:28;94754.50;;;23.81;54.20
41062;BME280;26812;42.662;23.352;2022-08-19T05:38:53;94747.78;;;23.90;53.52
41062;BME280;26812;42.662;23.352;2022-08-19T05:41:20;94751.22;;;24.01;53.51
41062;BME280;26812;42.662;23.352;2022-08-19T05:43:46;94739.31;;;24.11;53.09
41062;BME280;26812;42.662;23.352;2022-08-19T05:46:18;94754.88;;;24.32;51.72
41062;BME280;26812;42.662;23.352;2022-08-19T05:48:45;94751.75;;;24.30;52.04
41062;BME280;26812;42.662;23.352;2022-08-19T05:51:10;94752.50;;;24.34;52.35
41062;BME280;26812;42.662;23.352;2022-08-19T05:53:36;94746.81;;;24.48;52.32
41062;BME280;26812;42.662;23.352;2022-08-19T05:56:10;94749.84;;;24.61;51.64
41062;BME280;26812;42.662;23.352;2022-08-19T05:58:36;94751.66;;;24.74;50.73
41062;BME280;26812;42.662;23.352;2022-08-19T06:01:03;94758.25;;;24.84;50.00
41062;BME280;26812;42.662;23.352;2022-08-19T06:03:32;94739.28;;;24.90;49.47
41062;BME280;26812;42.662;23.352;2022-08-19T06:05:59;94710.69;;;24.76;48.98
41062;BME280;26812;42.662;23.352;2022-08-19T06:08:26;94752.84;;;25.07;48.80
41062;BME280;26812;42.662;23.352;2022-08-19T06:10:52;94746.13;;;25.08;48.74
41062;BME280;26812;42.662;23.352;2022-08-19T06:13:18;94750.66;;;25.26;48.38
41062;BME280;26812;42.662;23.352;2022-08-19T06:15:45;94760.66;;;25.43;48.17
41062;BME280;26812;42.662;23.352;2022-08-19T06:18:12;94760.91;;;25.52;48.12
41062;BME280;26812;42.662;23.352;2022-08-19T06:20:37;94762.72;;;25.62;47.36
41062;BME280;26812;42.662;23.352;2022-08-19T06:23:03;94761.09;;;25.68;47.31
41062;BME280;26812;42.662;23.352;2022-08-19T06:25:28;94768.78;;;25.81;47.25
41062;BME280;26812;42.662;23.352;2022-08-19T06:27:54;94751.41;;;25.84;47.35
41062;BME280;26812;42.662;23.352;2022-08-19T06:30:23;94762.56;;;26.00;46.75
41062;BME280;26812;42.662;23.352;2022-08-19T06:33:00;94760.13;;;26.06;47.37
41062;BME280;26812;42.662;23.352;2022-08-19T06:35:26;94752.25;;;26.04;46.27
41062;BME280;26812;42.662;23.352;2022-08-19T06:37:52;94769.66;;;26.24;46.10
41062;BME280;26812;42.662;23.352;2022-08-19T06:40:17;94753.38;;;26.30;46.89
41062;BME280;26812;42.662;23.352;2022-08-19T06:42:47;94761.56;;;26.37;46.41
41062;BME280;26812;42.662;23.352;2022-08-19T06:45:28;94757.41;;;26.49;46.46
41062;BME280;26812;42.662;23.352;2022-08-19T06:47:55;94756.97;;;26.50;45.11
41062;BME280;26812;42.662;23.352;2022-08-19T06:50:22;94760.38;;;26.58;45.96
41062;BME280;26812;42.662;23.352;2022-08-19T06:52:48;94748.78;;;26.67;46.09
41062;BME280;26812;42.662;23.352;2022-08-19T06:55:14;94753.69;;;26.79;45.53
41062;BME280;26812;42.662;23.352;2022-08-19T06:57:41;94768.38;;;26.96;45.52
41062;BME280;26812;42.662;23.352;2022-08-19T07:00:08;94762.41;;;26.97;45.28
41062;BME280;26812;42.662;23.352;2022-08-19T07:02:38;94762.28;;;27.04;44.78
41062;BME280;26812;42.662;23.352;2022-08-19T07:05:04;94771.00;;;27.03;44.85
41062;BME280;26812;42.662;23.352;2022-08-19T07:07:30;94775.72;;;27.22;44.65
41062;BME280;26812;42.662;23.352;2022-08-19T07:10:00;94772.31;;;27.34;44.90
41062;BME280;26812;42.662;23.352;2022-08-19T07:12:30;94771.31;;;27.44;44.83
41062;BME280;26812;42.662;23.352;2022-08-19T07:14:59;94768.38;;;27.51;44.42
41062;BME280;26812;42.662;23.352;2022-08-19T07:17:27;94772.00;;;27.68;43.58
41062;BME280;26812;42.662;23.352;2022-08-19T07:20:03;94765.69;;;27.68;43.64
41062;BME280;26812;42.662;23.352;2022-08-19T07:22:30;94781.75;;;27.73;43.61
41062;BME280;26812;42.662;23.352;2022-08-19T07:25:00;94780.66;;;27.87;43.32
41062;BME280;26812;42.662;23.352;2022-08-19T07:27:51;94778.81;;;27.80;42.90
41062;BME280;26812;42.662;23.352;2022-08-19T07:30:16;94755.47;;;27.81;43.26
41062;BME280;26812;42.662;23.352;2022-08-19T07:32:42;94759.81;;;27.98;43.24
41062;BME280;26812;42.662;23.352;2022-08-19T07:35:08;94754.34;;;28.11;42.80
41062;BME280;26812;42.662;23.352;2022-08-19T07:37:35;94764.84;;;28.36;42.55
41062;BME280;26812;42.662;23.352;2022-08-19T07:40:05;94773.47;;;28.54;41.39
41062;BME280;26812;42.662;23.352;2022-08-19T07:42:31;94767.16;;;28.54;41.00
41062;BME280;26812;42.662;23.352;2022-08-19T07:44:57;94760.16;;;28.49;40.57
41062;BME280;26812;42.662;23.352;2022-08-19T07:47:23;94748.19;;;28.52;40.83
41062;BME280;26812;42.662;23.352;2022-08-19T07:49:48;94748.38;;;28.74;40.98
41062;BME280;26812;42.662;23.352;2022-08-19T07:52:14;94749.81;;;28.95;40.81
41062;BME280;26812;42.662;23.352;2022-08-19T07:54:40;94755.09;;;29.18;40.33
41062;BME280;26812;42.662;23.352;2022-08-19T07:57:06;94760.44;;;29.38;40.34
41062;BME280;26812;42.662;23.352;2022-08-19T07:59:32;94751.19;;;29.45;39.79
41062;BME280;26812;42.662;23.352;2022-08-19T08:01:58;94757.06;;;29.72;38.91
41062;BME280;26812;42.662;23.352;2022-08-19T08:04:28;94763.28;;;29.89;38.01
41062;BME280;26812;42.662;23.352;2022-08-19T08:07:12;94744.41;;;29.84;38.69
41062;BME280;26812;42.662;23.352;2022-08-19T08:09:56;94757.16;;;30.19;38.51
41062;BME280;26812;42.662;23.352;2022-08-19T08:12:25;94757.38;;;30.25;37.35
41062;BME280;26812;42.662;23.352;2022-08-19T08:14:56;94758.47;;;30.40;36.88
41062;BME280;26812;42.662;23.352;2022-08-19T08:17:23;94757.81;;;30.58;37.69
41062;BME280;26812;42.662;23.352;2022-08-19T08:19:49;94738.63;;;30.64;37.14
41062;BME280;26812;42.662;23.352;2022-08-19T08:22:18;94747.41;;;30.84;36.96
41062;BME280;26812;42.662;23.352;2022-08-19T08:25:11;94751.56;;;31.01;36.58
41062;BME280;26812;42.662;23.352;2022-08-19T08:27:39;94744.38;;;31.13;35.98
41062;BME280;26812;42.662;23.352;2022-08-19T08:30:19;94741.13;;;31.27;35.56
41062;BME280;26812;42.662;23.352;2022-08-19T08:32:45;94744.84;;;31.33;35.54
41062;BME280;26812;42.662;23.352;2022-08-19T08:35:14;94750.59;;;31.39;34.60
41062;BME280;26812;42.662;23.352;2022-08-19T08:37:39;94745.53;;;31.46;34.37
41062;BME280;26812;42.662;23.352;2022-08-19T08:40:13;94748.31;;;31.46;34.54
41062;BME280;26812;42.662;23.352;2022-08-19T08:42:48;94735.78;;;31.20;35.08
41062;BME280;26812;42.662;23.352;2022-08-19T08:45:18;94744.19;;;31.07;33.76
41062;BME280;26812;42.662;23.352;2022-08-19T08:47:47;94743.41;;;30.85;34.68
41062;BME280;26812;42.662;23.352;2022-08-19T08:50:18;94735.25;;;31.12;35.57
41062;BME280;26812;42.662;23.352;2022-08-19T08:52:47;94736.38;;;31.37;35.07
41062;BME280;26812;42.662;23.352;2022-08-19T08:55:20;94732.75;;;31.58;33.97
41062;BME280;26812;42.662;23.352;2022-08-19T09:00:33;94737.34;;;31.83;34.26
41062;BME280;26812;42.662;23.352;2022-08-19T09:02:59;94722.09;;;31.97;33.75
41062;BME280;26812;42.662;23.352;2022-08-19T09:05:47;94714.38;;;32.10;32.20
41062;BME280;26812;42.662;23.352;2022-08-19T09:11:10;94712.31;;;32.51;31.71
41062;BME280;26812;42.662;23.352;2022-08-19T09:13:49;94716.34;;;32.68;32.01
41062;BME280;26812;42.662;23.352;2022-08-19T09:16:20;94718.50;;;32.73;29.01
41062;BME280;26812;42.662;23.352;2022-08-19T09:21:32;94704.72;;;32.97;28.76
41062;BME280;26812;42.662;23.352;2022-08-19T09:23:57;94687.81;;;33.10;27.27
41062;BME280;26812;42.662;23.352;2022-08-19T09:26:27;94705.66;;;32.94;28.32
41062;BME280;26812;42.662;23.352;2022-08-19T09:28:58;94699.91;;;33.07;27.01
41062;BME280;26812;42.662;23.352;2022-08-19T09:31:26;94696.97;;;33.01;26.10
41062;BME280;26812;42.662;23.352;2022-08-19T09:33:53;94698.13;;;33.27;27.33
41062;BME280;26812;42.662;23.352;2022-08-19T09:36:22;94686.31;;;33.51;26.46
41062;BME280;26812;42.662;23.352;2022-08-19T09:38:49;94684.56;;;33.62;25.99
41062;BME280;26812;42.662;23.352;2022-08-19T09:41:20;94687.31;;;33.72;26.31
41062;BME280;26812;42.662;23.352;2022-08-19T09:43:49;94688.34;;;33.50;25.72
41062;BME280;26812;42.662;23.352;2022-08-19T09:46:18;94690.81;;;33.48;26.28
41062;BME280;26812;42.662;23.352;2022-08-19T09:48:46;94683.28;;;33.21;25.15
41062;BME280;26812;42.662;23.352;2022-08-19T09:51:16;94680.97;;;33.20;24.91
41062;BME280;26812;42.662;23.352;2022-08-19T09:53:47;94694.91;;;33.38;26.73
41062;BME280;26812;42.662;23.352;2022-08-19T09:56:15;94690.31;;;33.59;25.34
41062;BME280;26812;42.662;23.352;2022-08-19T09:58:45;94674.50;;;33.56;24.68
41062;BME280;26812;42.662;23.352;2022-08-19T10:01:22;94682.22;;;33.70;26.21
41062;BME280;26812;42.662;23.352;2022-08-19T10:03:52;94675.16;;;33.84;25.71
41062;BME280;26812;42.662;23.352;2022-08-19T10:06:20;94673.44;;;33.86;25.70
41062;BME280;26812;42.662;23.352;2022-08-19T10:08:47;94664.19;;;34.04;25.44
41062;BME280;26812;42.662;23.352;2022-08-19T10:11:13;94666.16;;;34.13;24.99
41062;BME280;26812;42.662;23.352;2022-08-19T10:13:45;94627.13;;;33.94;25.17
41062;BME280;26812;42.662;23.352;2022-08-19T10:16:17;94657.28;;;34.14;25.08
41062;BME280;26812;42.662;23.352;2022-08-19T10:18:43;94656.88;;;34.07;24.44
41062;BME280;26812;42.662;23.352;2022-08-19T10:23:41;94660.44;;;34.07;24.49
41062;BME280;26812;42.662;23.352;2022-08-19T10:26:15;94637.13;;;34.10;24.42
41062;BME280;26812;42.662;23.352;2022-08-19T10:28:42;94654.31;;;34.18;24.79
41062;BME280;26812;42.662;23.352;2022-08-19T10:31:13;94646.47;;;33.83;24.53
41062;BME280;26812;42.662;23.352;2022-08-19T10:33:40;94641.97;;;33.77;24.19
41062;BME280;26812;42.662;23.352;2022-08-19T10:36:09;94646.66;;;33.71;24.52
41062;BME280;26812;42.662;23.352;2022-08-19T10:38:36;94636.66;;;33.55;23.94
41062;BME280;26812;42.662;23.352;2022-08-19T10:41:09;94646.19;;;33.72;24.21
41062;BME280;26812;42.662;23.352;2022-08-19T10:43:35;94634.03;;;33.84;24.33
41062;BME280;26812;42.662;23.352;2022-08-19T10:46:04;94627.09;;;34.04;24.51
41062;BME280;26812;42.662;23.352;2022-08-19T10:48:31;94641.66;;;34.32;24.89
41062;BME280;26812;42.662;23.352;2022-08-19T10:50:57;94642.47;;;34.47;24.44
41062;BME280;26812;42.662;23.352;2022-08-19T10:53:41;94637.22;;;34.64;24.15
41062;BME280;26812;42.662;23.352;2022-08-19T10:56:07;94632.69;;;34.66;24.27
41062;BME280;26812;42.662;23.352;2022-08-19T10:58:51;94636.09;;;34.85;24.18
41062;BME280;26812;42.662;23.352;2022-08-19T11:01:16;94627.91;;;34.96;23.91
41062;BME280;26812;42.662;23.352;2022-08-19T11:03:41;94625.19;;;35.02;23.71
41062;BME280;26812;42.662;23.352;2022-08-19T11:06:08;94620.56;;;34.99;23.70
41062;BME280;26812;42.662;23.352;2022-08-19T11:08:35;94607.63;;;34.86;24.32
41062;BME280;26812;42.662;23.352;2022-08-19T11:11:04;94619.88;;;35.04;24.27
41062;BME280;26812;42.662;23.352;2022-08-19T11:13:32;94631.84;;;35.19;23.74
41062;BME280;26812;42.662;23.352;2022-08-19T11:16:05;94624.81;;;35.09;23.79
41062;BME280;26812;42.662;23.352;2022-08-19T11:18:40;94628.78;;;35.02;23.59
41062;BME280;26812;42.662;23.352;2022-08-19T11:21:19;94626.31;;;34.66;23.59
41062;BME280;26812;42.662;23.352;2022-08-19T11:23:47;94628.06;;;34.63;24.12
41062;BME280;26812;42.662;23.352;2022-08-19T11:26:14;94613.28;;;34.63;23.59
41062;BME280;26812;42.662;23.352;2022-08-19T11:28:40;94621.88;;;34.74;24.03
41062;BME280;26812;42.662;23.352;2022-08-19T11:31:15;94610.78;;;34.65;24.05
41062;BME280;26812;42.662;23.352;2022-08-19T11:33:42;94611.66;;;34.71;23.90
41062;BME280;26812;42.662;23.352;2022-08-19T11:36:08;94607.00;;;34.82;23.36
41062;BME280;26812;42.662;23.352;2022-08-19T11:38:34;94602.22;;;34.98;23.29
41062;BME280;26812;42.662;23.352;2022-08-19T11:41:03;94604.72;;;35.25;23.49
41062;BME280;26812;42.662;23.352;2022-08-19T11:43:29;94604.56;;;34.99;23.39
41062;BME280;26812;42.662;23.352;2022-08-19T11:45:55;94594.69;;;35.04;23.13
41062;BME280;26812;42.662;23.352;2022-08-19T11:48:22;94591.91;;;35.04;23.07
41062;BME280;26812;42.662;23.352;2022-08-19T11:50:49;94596.72;;;34.89;23.20
41062;BME280;26812;42.662;23.352;2022-08-19T11:53:16;94598.56;;;34.92;23.21
41062;BME280;26812;42.662;23.352;2022-08-19T11:55:43;94585.22;;;35.16;23.06
41062;BME280;26812;42.662;23.352;2022-08-19T11:58:10;94595.03;;;35.56;23.30
41062;BME280;26812;42.662;23.352;2022-08-19T12:00:36;94579.91;;;35.83;22.82
41062;BME280;26812;42.662;23.352;2022-08-19T12:03:02;94578.97;;;36.12;22.72
41062;BME280;26812;42.662;23.352;2022-08-19T12:05:28;94576.72;;;36.36;22.55
41062;BME280;26812;42.662;23.352;2022-08-19T12:07:53;94579.50;;;36.56;22.86
41062;BME280;26812;42.662;23.352;2022-08-19T12:10:20;94586.97;;;36.39;22.53
41062;BME280;26812;42.662;23.352;2022-08-19T12:12:46;94573.72;;;36.39;21.84
41062;BME280;26812;42.662;23.352;2022-08-19T12:15:12;94570.91;;;36.39;22.13
41062;BME280;26812;42.662;23.352;2022-08-19T12:17:39;94562.28;;;36.23;22.16
41062;BME280;26812;42.662;23.352;2022-08-19T12:20:06;94565.03;;;36.37;22.71
41062;BME280;26812;42.662;23.352;2022-08-19T12:22:34;94562.13;;;36.52;22.35
41062;BME280;26812;42.662;23.352;2022-08-19T12:25:00;94557.16;;;36.67;22.11
41062;BME280;26812;42.662;23.352;2022-08-19T12:27:26;94546.50;;;36.25;21.21
41062;BME280;26812;42.662;23.352;2022-08-19T12:29:51;94549.97;;;36.15;22.16
41062;BME280;26812;42.662;23.352;2022-08-19T12:32:17;94539.09;;;36.22;21.83
41062;BME280;26812;42.662;23.352;2022-08-19T12:34:42;94542.19;;;36.04;22.23
41062;BME280;26812;42.662;23.352;2022-08-19T12:37:08;94546.44;;;36.20;22.36
41062;BME280;26812;42.662;23.352;2022-08-19T12:39:38;94548.09;;;36.52;22.07
41062;BME280;26812;42.662;23.352;2022-08-19T12:42:04;94533.75;;;36.24;22.62
41062;BME280;26812;42.662;23.352;2022-08-19T12:44:29;94542.66;;;36.02;22.24
41062;BME280;26812;42.662;23.352;2022-08-19T12:46:57;94533.94;;;35.95;21.92
41062;BME280;26812;42.662;23.352;2022-08-19T12:49:23;94523.75;;;35.97;22.33
41062;BME280;26812;42.662;23.352;2022-08-19T12:51:50;94522.50;;;35.98;22.08
41062;BME280;26812;42.662;23.352;2022-08-19T12:54:15;94531.75;;;36.04;22.32
41062;BME280;26812;42.662;23.352;2022-08-19T12:56:40;94518.84;;;36.13;22.67
41062;BME280;26812;42.662;23.352;2022-08-19T12:59:07;94529.44;;;36.03;23.11
41062;BME280;26812;42.662;23.352;2022-08-19T13:01:34;94522.28;;;36.02;22.41
41062;BME280;26812;42.662;23.352;2022-08-19T13:03:59;94530.50;;;35.85;22.64
41062;BME280;26812;42.662;23.352;2022-08-19T13:06:25;94525.56;;;36.00;22.77
41062;BME280;26812;42.662;23.352;2022-08-19T13:08:51;94526.78;;;36.14;21.41
41062;BME280;26812;42.662;23.352;2022-08-19T13:11:19;94528.94;;;36.04;21.76
41062;BME280;26812;42.662;23.352;2022-08-19T13:13:47;94522.22;;;35.96;22.77